sensor_id;sensor_type;location;lat;lon;timestamp;pressure;altitude;pressure_sealevel;temperature;humidity
28027;BME280;15344;52.342;-1.290;2023-03-21T00:01:56;99732.99;;;10.86;100.00
28027;BME280;15344;52.342;-1.290;2023-03-21T00:04:24;99727.52;;;11.03;100.00
28027;BME280;15344;52.342;-1.290;2023-03-21T00:06:47;99732.44;;;11.24;100.00
28027;BME280;15344;52.342;-1.290;2023-03-21T00:09:12;99732.21;;;10.34;100.00
28027;BME280;15344;52.342;-1.290;2023-03-21T00:11:38;99725.43;;;11.07;100.00
28027;BME280;15344;52.342;-1.290;2023-03-21T00:14:03;99722.17;;;11.10;100.00
28027;BME280;15344;52.342;-1.290;2023-03-21T00:16:29;99721.79;;;10.53;100.00
28027;BME280;15344;52.342;-1.290;2023-03-21T00:18:54;99725.95;;;10.58;100.00
28027;BME280;15344;52.342;-1.290;2023-03-21T00:21:20;99728.74;;;10.18;100.00
28027;BME280;15344;52.342;-1.290;2023-03-21T00:23:45;99724.17;;;10.74;100.00
28027;BME280;15344;52.342;-1.290;2023-03-21T00:26:09;99721.58;;;10.45;100.00
28027;BME280;15344;52.342;-1.290;2023-03-21T00:28:35;99715.93;;;10.73;100.00
28027;BME280;15344;52.342;-1.290;2023-03-21T00:31:00;99713.23;;;11.08;100.00
28027;BME280;15344;52.342;-1.290;2023-03-21T00:33:26;99710.75;;;10.65;100.00
28027;BME280;15344;52.342;-1.290;2023-03-21T00:35:51;99702.76;;;10.80;100.00
28027;BME280;15344;52.342;-1.290;2023-03-21T00:38:16;99699.83;;;10.99;100.00
28027;BME280;15344;52.342;-1.290;2023-03-21T00:40:42;99703.24;;;10.40;100.00
28027;BME280;15344;52.342;-1.290;2023-03-21T00:43:07;99692.29;;;11.48;100.00
28027;BME280;15344;52.342;-1.290;2023-03-21T00:45:32;99686.71;;;11.71;100.00
28027;BME280;15344;52.342;-1.290;2023-03-21T00:47:58;99683.17;;;11.67;100.00
28027;BME280;15344;52.342;-1.290;2023-03-21T00:50:23;99681.96;;;11.20;100.00
28027;BME280;15344;52.342;-1.290;2023-03-21T00:52:48;99681.68;;;11.60;100.00
28027;BME280;15344;52.342;-1.290;2023-03-21T00:55:15;99676.41;;;11.57;100.00
28027;BME280;15344;52.342;-1.290;2023-03-21T00:57:39;99675.60;;;11.88;100.00
28027;BME280;15344;52.342;-1.290;2023-03-21T01:00:05;99673.42;;;11.97;100.00
28027;BME280;15344;52.342;-1.290;2023-03-21T01:02:29;99664.75;;;11.87;100.00
28027;BME280;15344;52.342;-1.290;2023-03-21T01:04:55;99655.31;;;11.54;100.00
28027;BME280;15344;52.342;-1.290;2023-03-21T01:07:20;99647.91;;;12.00;100.00
28027;BME280;15344;52.342;-1.290;2023-03-21T01:09:46;99642.76;;;11.91;100.00
28027;BME280;15344;52.342;-1.290;2023-03-21T01:12:11;99644.02;;;11.61;100.00
28027;BME280;15344;52.342;-1.290;2023-03-21T01:14:36;99644.45;;;11.31;100.00
28027;BME280;15344;52.342;-1.290;2023-03-21T01:17:02;99633.07;;;10.78;100.00
28027;BME280;15344;52.342;-1.290;2023-03-21T01:19:27;99630.81;;;11.14;100.00
28027;BME280;15344;52.342;-1.290;2023-03-21T01:21:52;99627.11;;;11.71;100.00
28027;BME280;15344;52.342;-1.290;2023-03-21T01:24:18;99618.49;;;11.24;100.00
28027;BME280;15344;52.342;-1.290;2023-03-21T01:26:43;99613.18;;;11.67;100.00
28027;BME280;15344;52.342;-1.290;2023-03-21T01:29:08;99612.54;;;11.79;100.00
28027;BME280;15344;52.342;-1.290;2023-03-21T01:31:34;99612.09;;;11.84;100.00
28027;BME280;15344;52.342;-1.290;2023-03-21T01:34:00;99606.77;;;11.78;100.00
28027;BME280;15344;52.342;-1.290;2023-03-21T01:36:25;99606.28;;;11.74;100.00
28027;BME280;15344;52.342;-1.290;2023-03-21T01:38:51;99612.13;;;11.54;100.00
28027;BME280;15344;52.342;-1.290;2023-03-21T01:41:20;99610.61;;;11.31;100.00
28027;BME280;15344;52.342;-1.290;2023-03-21T01:43:42;99600.69;;;11.70;100.00
28027;BME280;15344;52.342;-1.290;2023-03-21T01:48:33;99594.96;;;11.89;100.00
28027;BME280;15344;52.342;-1.290;2023-03-21T01:50:58;99590.02;;;12.04;100.00
28027;BME280;15344;52.342;-1.290;2023-03-21T01:53:26;99593.39;;;11.58;100.00
28027;BME280;15344;52.342;-1.290;2023-03-21T01:55:49;99591.07;;;11.70;100.00
28027;BME280;15344;52.342;-1.290;2023-03-21T01:58:16;99589.16;;;11.27;100.00
28027;BME280;15344;52.342;-1.290;2023-03-21T02:00:39;99591.62;;;11.96;100.00
28027;BME280;15344;52.342;-1.290;2023-03-21T02:03:07;99593.12;;;11.75;100.00
28027;BME280;15344;52.342;-1.290;2023-03-21T02:05:36;99591.83;;;11.24;100.00
28027;BME280;15344;52.342;-1.290;2023-03-21T02:07:56;99584.35;;;11.08;100.00
28027;BME280;15344;52.342;-1.290;2023-03-21T02:10:21;99578.27;;;10.51;100.00
28027;BME280;15344;52.342;-1.290;2023-03-21T02:12:47;99570.68;;;11.97;100.00
28027;BME280;15344;52.342;-1.290;2023-03-21T02:15:13;99567.17;;;10.87;100.00
28027;BME280;15344;52.342;-1.290;2023-03-21T02:17:42;99563.83;;;11.57;100.00
28027;BME280;15344;52.342;-1.290;2023-03-21T02:22:42;99551.23;;;10.84;100.00
28027;BME280;15344;52.342;-1.290;2023-03-21T02:25:02;99548.91;;;10.24;100.00
28027;BME280;15344;52.342;-1.290;2023-03-21T02:27:20;99547.72;;;10.35;100.00
28027;BME280;15344;52.342;-1.290;2023-03-21T02:29:59;99540.99;;;10.75;100.00
28027;BME280;15344;52.342;-1.290;2023-03-21T02:32:15;99540.10;;;10.81;100.00
28027;BME280;15344;52.342;-1.290;2023-03-21T02:34:45;99530.81;;;10.29;100.00
28027;BME280;15344;52.342;-1.290;2023-03-21T02:37:09;99531.76;;;10.89;100.00
28027;BME280;15344;52.342;-1.290;2023-03-21T02:39:27;99531.27;;;11.04;100.00
28027;BME280;15344;52.342;-1.290;2023-03-21T02:41:54;99529.38;;;10.58;100.00
28027;BME280;15344;52.342;-1.290;2023-03-21T02:44:21;99530.27;;;10.60;100.00
28027;BME280;15344;52.342;-1.290;2023-03-21T02:46:44;99530.13;;;10.57;100.00
28027;BME280;15344;52.342;-1.290;2023-03-21T02:49:10;99523.16;;;10.66;100.00
28027;BME280;15344;52.342;-1.290;2023-03-21T02:51:33;99521.25;;;10.13;100.00
28027;BME280;15344;52.342;-1.290;2023-03-21T02:54:00;99517.70;;;10.64;100.00
28027;BME280;15344;52.342;-1.290;2023-03-21T02:56:24;99517.81;;;10.48;100.00
28027;BME280;15344;52.342;-1.290;2023-03-21T02:58:49;99517.22;;;10.43;100.00
28027;BME280;15344;52.342;-1.290;2023-03-21T03:01:14;99512.23;;;10.60;100.00
28027;BME280;15344;52.342;-1.290;2023-03-21T03:03:39;99503.93;;;10.56;100.00
28027;BME280;15344;52.342;-1.290;2023-03-21T03:06:14;99500.16;;;10.78;100.00
28027;BME280;15344;52.342;-1.290;2023-03-21T03:08:35;99497.58;;;10.55;100.00
28027;BME280;15344;52.342;-1.290;2023-03-21T03:11:05;99491.34;;;10.37;100.00
28027;BME280;15344;52.342;-1.290;2023-03-21T03:13:33;99491.24;;;11.02;100.00
28027;BME280;15344;52.342;-1.290;2023-03-21T03:15:54;99496.11;;;11.21;100.00
28027;BME280;15344;52.342;-1.290;2023-03-21T03:18:18;99493.83;;;11.42;100.00
28027;BME280;15344;52.342;-1.290;2023-03-21T03:20:44;99489.75;;;11.22;100.00
28027;BME280;15344;52.342;-1.290;2023-03-21T03:23:10;99487.71;;;11.05;100.00
28027;BME280;15344;52.342;-1.290;2023-03-21T03:25:30;99489.27;;;10.36;100.00
28027;BME280;15344;52.342;-1.290;2023-03-21T03:27:54;99485.34;;;10.92;100.00
28027;BME280;15344;52.342;-1.290;2023-03-21T03:30:17;99485.96;;;10.95;100.00
28027;BME280;15344;52.342;-1.290;2023-03-21T03:32:47;99486.98;;;10.53;100.00
28027;BME280;15344;52.342;-1.290;2023-03-21T03:35:08;99484.16;;;10.55;100.00
28027;BME280;15344;52.342;-1.290;2023-03-21T03:37:35;99484.73;;;10.43;100.00
28027;BME280;15344;52.342;-1.290;2023-03-21T03:40:03;99478.97;;;10.57;100.00
28027;BME280;15344;52.342;-1.290;2023-03-21T03:42:28;99471.05;;;10.48;100.00
28027;BME280;15344;52.342;-1.290;2023-03-21T03:44:50;99466.17;;;11.20;100.00
28027;BME280;15344;52.342;-1.290;2023-03-21T03:47:20;99466.30;;;11.40;100.00
28027;BME280;15344;52.342;-1.290;2023-03-21T03:49:42;99464.67;;;11.35;100.00
28027;BME280;15344;52.342;-1.290;2023-03-21T03:52:10;99460.24;;;11.01;100.00
28027;BME280;15344;52.342;-1.290;2023-03-21T03:54:33;99468.57;;;10.03;100.00
28027;BME280;15344;52.342;-1.290;2023-03-21T03:56:56;99467.67;;;11.32;100.00
28027;BME280;15344;52.342;-1.290;2023-03-21T03:59:22;99464.37;;;10.82;100.00
28027;BME280;15344;52.342;-1.290;2023-03-21T04:01:47;99461.42;;;11.40;100.00
28027;BME280;15344;52.342;-1.290;2023-03-21T04:04:12;99454.18;;;10.95;100.00
28027;BME280;15344;52.342;-1.290;2023-03-21T04:06:38;99450.46;;;10.82;100.00
28027;BME280;15344;52.342;-1.290;2023-03-21T04:09:03;99448.51;;;10.61;100.00
28027;BME280;15344;52.342;-1.290;2023-03-21T04:11:28;99448.89;;;10.12;100.00
28027;BME280;15344;52.342;-1.290;2023-03-21T04:13:54;99445.91;;;10.32;100.00
28027;BME280;15344;52.342;-1.290;2023-03-21T04:16:19;99452.45;;;10.65;100.00
28027;BME280;15344;52.342;-1.290;2023-03-21T04:18:44;99450.60;;;11.09;100.00
28027;BME280;15344;52.342;-1.290;2023-03-21T04:21:11;99450.02;;;10.49;100.00
28027;BME280;15344;52.342;-1.290;2023-03-21T04:23:35;99451.35;;;11.03;100.00
28027;BME280;15344;52.342;-1.290;2023-03-21T04:26:02;99441.64;;;11.23;100.00
28027;BME280;15344;52.342;-1.290;2023-03-21T04:28:26;99438.99;;;11.62;100.00
28027;BME280;15344;52.342;-1.290;2023-03-21T04:30:51;99436.32;;;10.95;100.00
28027;BME280;15344;52.342;-1.290;2023-03-21T04:33:17;99437.39;;;10.56;100.00
28027;BME280;15344;52.342;-1.290;2023-03-21T04:35:42;99434.78;;;11.59;100.00
28027;BME280;15344;52.342;-1.290;2023-03-21T04:38:07;99433.39;;;11.07;100.00
28027;BME280;15344;52.342;-1.290;2023-03-21T04:40:33;99441.86;;;10.69;100.00
28027;BME280;15344;52.342;-1.290;2023-03-21T04:42:58;99433.59;;;10.58;100.00
28027;BME280;15344;52.342;-1.290;2023-03-21T04:45:23;99424.36;;;11.37;100.00
28027;BME280;15344;52.342;-1.290;2023-03-21T04:47:49;99422.99;;;11.95;100.00
28027;BME280;15344;52.342;-1.290;2023-03-21T04:50:15;99417.61;;;11.63;100.00
28027;BME280;15344;52.342;-1.290;2023-03-21T04:52:40;99413.52;;;12.16;100.00
28027;BME280;15344;52.342;-1.290;2023-03-21T04:55:06;99407.75;;;11.24;100.00
28027;BME280;15344;52.342;-1.290;2023-03-21T04:57:30;99402.18;;;11.49;100.00
28027;BME280;15344;52.342;-1.290;2023-03-21T04:59:55;99393.85;;;11.51;100.00
28027;BME280;15344;52.342;-1.290;2023-03-21T05:02:22;99393.51;;;11.71;100.00
28027;BME280;15344;52.342;-1.290;2023-03-21T05:04:47;99387.39;;;11.31;100.00
28027;BME280;15344;52.342;-1.290;2023-03-21T05:07:12;99387.32;;;11.54;100.00
28027;BME280;15344;52.342;-1.290;2023-03-21T05:09:38;99380.80;;;12.02;100.00
28027;BME280;15344;52.342;-1.290;2023-03-21T05:12:04;99376.30;;;11.74;100.00
28027;BME280;15344;52.342;-1.290;2023-03-21T05:14:28;99374.22;;;12.27;100.00
28027;BME280;15344;52.342;-1.290;2023-03-21T05:16:54;99375.27;;;11.72;100.00
28027;BME280;15344;52.342;-1.290;2023-03-21T05:19:20;99370.34;;;11.26;100.00
28027;BME280;15344;52.342;-1.290;2023-03-21T05:21:45;99369.38;;;11.71;100.00
28027;BME280;15344;52.342;-1.290;2023-03-21T05:24:13;99365.42;;;11.64;100.00
28027;BME280;15344;52.342;-1.290;2023-03-21T05:26:35;99377.13;;;11.73;100.00
28027;BME280;15344;52.342;-1.290;2023-03-21T05:29:01;99370.41;;;11.61;100.00
28027;BME280;15344;52.342;-1.290;2023-03-21T05:31:26;99368.89;;;11.44;100.00
28027;BME280;15344;52.342;-1.290;2023-03-21T05:33:56;99361.52;;;10.97;100.00
28027;BME280;15344;52.342;-1.290;2023-03-21T05:36:16;99353.03;;;11.38;100.00
28027;BME280;15344;52.342;-1.290;2023-03-21T05:38:42;99350.06;;;10.71;100.00
28027;BME280;15344;52.342;-1.290;2023-03-21T05:41:07;99347.74;;;10.62;100.00
28027;BME280;15344;52.342;-1.290;2023-03-21T05:43:33;99349.29;;;11.36;100.00
28027;BME280;15344;52.342;-1.290;2023-03-21T05:45:58;99349.06;;;11.44;100.00
28027;BME280;15344;52.342;-1.290;2023-03-21T05:48:23;99356.64;;;11.51;100.00
28027;BME280;15344;52.342;-1.290;2023-03-21T05:50:48;99344.56;;;11.15;100.00
28027;BME280;15344;52.342;-1.290;2023-03-21T05:53:14;99349.27;;;11.20;100.00
28027;BME280;15344;52.342;-1.290;2023-03-21T05:55:39;99358.18;;;10.85;100.00
28027;BME280;15344;52.342;-1.290;2023-03-21T05:58:05;99352.89;;;10.68;100.00
28027;BME280;15344;52.342;-1.290;2023-03-21T06:00:30;99353.01;;;10.90;100.00
28027;BME280;15344;52.342;-1.290;2023-03-21T06:02:55;99349.93;;;11.35;100.00
28027;BME280;15344;52.342;-1.290;2023-03-21T06:05:21;99351.78;;;10.41;100.00
28027;BME280;15344;52.342;-1.290;2023-03-21T06:07:46;99350.96;;;10.94;100.00
28027;BME280;15344;52.342;-1.290;2023-03-21T06:10:11;99350.58;;;11.29;100.00
28027;BME280;15344;52.342;-1.290;2023-03-21T06:12:37;99354.34;;;10.83;100.00
28027;BME280;15344;52.342;-1.290;2023-03-21T06:15:03;99352.54;;;10.97;100.00
28027;BME280;15344;52.342;-1.290;2023-03-21T06:17:27;99350.62;;;10.81;100.00
28027;BME280;15344;52.342;-1.290;2023-03-21T06:19:52;99349.84;;;10.89;100.00
28027;BME280;15344;52.342;-1.290;2023-03-21T06:22:18;99345.66;;;10.64;100.00
28027;BME280;15344;52.342;-1.290;2023-03-21T06:24:43;99344.87;;;10.59;100.00
28027;BME280;15344;52.342;-1.290;2023-03-21T06:27:09;99341.43;;;11.45;100.00
28027;BME280;15344;52.342;-1.290;2023-03-21T06:29:34;99341.59;;;11.60;100.00
28027;BME280;15344;52.342;-1.290;2023-03-21T06:31:59;99348.54;;;11.87;100.00
28027;BME280;15344;52.342;-1.290;2023-03-21T06:34:25;99352.27;;;11.37;100.00
28027;BME280;15344;52.342;-1.290;2023-03-21T06:36:50;99353.38;;;11.48;100.00
28027;BME280;15344;52.342;-1.290;2023-03-21T06:39:16;99349.70;;;11.71;100.00
28027;BME280;15344;52.342;-1.290;2023-03-21T06:41:41;99344.83;;;11.71;100.00
28027;BME280;15344;52.342;-1.290;2023-03-21T06:44:06;99351.85;;;11.80;100.00
28027;BME280;15344;52.342;-1.290;2023-03-21T06:46:32;99353.36;;;11.82;100.00
28027;BME280;15344;52.342;-1.290;2023-03-21T06:48:57;99353.50;;;11.12;100.00
28027;BME280;15344;52.342;-1.290;2023-03-21T06:51:22;99357.03;;;11.69;100.00
28027;BME280;15344;52.342;-1.290;2023-03-21T06:53:48;99360.18;;;11.99;100.00
28027;BME280;15344;52.342;-1.290;2023-03-21T06:56:14;99361.48;;;11.23;100.00
28027;BME280;15344;52.342;-1.290;2023-03-21T06:58:39;99356.87;;;11.07;100.00
28027;BME280;15344;52.342;-1.290;2023-03-21T07:01:05;99354.87;;;11.03;100.00
28027;BME280;15344;52.342;-1.290;2023-03-21T07:03:29;99354.79;;;11.25;100.00
28027;BME280;15344;52.342;-1.290;2023-03-21T07:05:55;99354.08;;;11.45;100.00
28027;BME280;15344;52.342;-1.290;2023-03-21T07:08:20;99352.99;;;11.23;100.00
28027;BME280;15344;52.342;-1.290;2023-03-21T07:10:45;99354.55;;;11.69;100.00
28027;BME280;15344;52.342;-1.290;2023-03-21T07:13:11;99350.52;;;11.75;100.00
28027;BME280;15344;52.342;-1.290;2023-03-21T07:15:36;99343.77;;;10.95;100.00
28027;BME280;15344;52.342;-1.290;2023-03-21T07:18:01;99347.52;;;11.53;100.00
28027;BME280;15344;52.342;-1.290;2023-03-21T07:20:27;99344.53;;;11.94;100.00
28027;BME280;15344;52.342;-1.290;2023-03-21T07:22:52;99338.53;;;11.09;100.00
28027;BME280;15344;52.342;-1.290;2023-03-21T07:25:18;99334.26;;;11.81;100.00
28027;BME280;15344;52.342;-1.290;2023-03-21T07:27:43;99333.52;;;12.04;100.00
28027;BME280;15344;52.342;-1.290;2023-03-21T07:30:10;99339.83;;;11.30;100.00
28027;BME280;15344;52.342;-1.290;2023-03-21T07:32:35;99340.81;;;11.29;100.00
28027;BME280;15344;52.342;-1.290;2023-03-21T07:34:59;99344.04;;;11.78;100.00
28027;BME280;15344;52.342;-1.290;2023-03-21T07:37:24;99344.79;;;11.34;100.00
28027;BME280;15344;52.342;-1.290;2023-03-21T07:39:49;99350.07;;;11.77;100.00
28027;BME280;15344;52.342;-1.290;2023-03-21T07:42:15;99351.88;;;12.14;100.00
28027;BME280;15344;52.342;-1.290;2023-03-21T07:44:40;99347.20;;;12.35;100.00
28027;BME280;15344;52.342;-1.290;2023-03-21T07:47:05;99348.06;;;11.65;100.00
28027;BME280;15344;52.342;-1.290;2023-03-21T07:49:31;99349.19;;;12.15;100.00
28027;BME280;15344;52.342;-1.290;2023-03-21T07:51:56;99347.10;;;12.16;100.00
28027;BME280;15344;52.342;-1.290;2023-03-21T07:54:22;99349.20;;;12.42;100.00
28027;BME280;15344;52.342;-1.290;2023-03-21T07:56:47;99348.06;;;12.57;100.00
28027;BME280;15344;52.342;-1.290;2023-03-21T07:59:12;99349.27;;;12.52;100.00
28027;BME280;15344;52.342;-1.290;2023-03-21T08:01:37;99344.09;;;12.02;100.00
28027;BME280;15344;52.342;-1.290;2023-03-21T08:04:03;99339.77;;;12.59;100.00
28027;BME280;15344;52.342;-1.290;2023-03-21T08:06:28;99340.22;;;12.15;100.00
28027;BME280;15344;52.342;-1.290;2023-03-21T08:08:54;99335.77;;;11.93;100.00
28027;BME280;15344;52.342;-1.290;2023-03-21T08:11:19;99331.55;;;12.12;100.00
28027;BME280;15344;52.342;-1.290;2023-03-21T08:13:44;99331.60;;;12.59;100.00
28027;BME280;15344;52.342;-1.290;2023-03-21T08:16:09;99332.92;;;11.99;100.00
28027;BME280;15344;52.342;-1.290;2023-03-21T08:18:35;99327.31;;;12.48;100.00
28027;BME280;15344;52.342;-1.290;2023-03-21T08:21:00;99320.51;;;12.52;100.00
28027;BME280;15344;52.342;-1.290;2023-03-21T08:23:25;99315.92;;;12.77;100.00
28027;BME280;15344;52.342;-1.290;2023-03-21T08:25:51;99317.41;;;12.15;100.00
28027;BME280;15344;52.342;-1.290;2023-03-21T08:28:16;99316.12;;;11.78;100.00
28027;BME280;15344;52.342;-1.290;2023-03-21T08:30:41;99310.96;;;11.38;100.00
28027;BME280;15344;52.342;-1.290;2023-03-21T08:33:07;99314.15;;;11.52;100.00
28027;BME280;15344;52.342;-1.290;2023-03-21T08:35:32;99307.08;;;11.79;100.00
28027;BME280;15344;52.342;-1.290;2023-03-21T08:37:57;99307.84;;;11.11;100.00
28027;BME280;15344;52.342;-1.290;2023-03-21T08:40:22;99306.07;;;11.71;100.00
28027;BME280;15344;52.342;-1.290;2023-03-21T08:42:48;99310.32;;;11.72;100.00
28027;BME280;15344;52.342;-1.290;2023-03-21T08:45:14;99315.12;;;11.71;100.00
28027;BME280;15344;52.342;-1.290;2023-03-21T08:47:39;99319.61;;;11.01;100.00
28027;BME280;15344;52.342;-1.290;2023-03-21T08:50:05;99312.74;;;11.42;100.00
28027;BME280;15344;52.342;-1.290;2023-03-21T08:52:29;99314.45;;;11.88;100.00
28027;BME280;15344;52.342;-1.290;2023-03-21T08:54:54;99307.87;;;11.90;100.00
28027;BME280;15344;52.342;-1.290;2023-03-21T08:57:20;99308.16;;;11.94;100.00
28027;BME280;15344;52.342;-1.290;2023-03-21T08:59:45;99307.86;;;11.61;100.00
28027;BME280;15344;52.342;-1.290;2023-03-21T09:02:13;99301.48;;;11.84;100.00
28027;BME280;15344;52.342;-1.290;2023-03-21T09:04:36;99305.27;;;11.91;100.00
28027;BME280;15344;52.342;-1.290;2023-03-21T09:07:01;99305.74;;;11.73;100.00
28027;BME280;15344;52.342;-1.290;2023-03-21T09:09:26;99299.98;;;11.87;100.00
28027;BME280;15344;52.342;-1.290;2023-03-21T09:11:51;99304.84;;;12.41;100.00
28027;BME280;15344;52.342;-1.290;2023-03-21T09:14:17;99305.57;;;11.42;100.00
28027;BME280;15344;52.342;-1.290;2023-03-21T09:16:42;99309.04;;;12.05;100.00
28027;BME280;15344;52.342;-1.290;2023-03-21T09:19:08;99311.70;;;12.11;100.00
28027;BME280;15344;52.342;-1.290;2023-03-21T09:21:34;99301.41;;;13.03;100.00
28027;BME280;15344;52.342;-1.290;2023-03-21T09:23:58;99303.12;;;12.70;100.00
28027;BME280;15344;52.342;-1.290;2023-03-21T09:26:24;99295.67;;;13.31;100.00
28027;BME280;15344;52.342;-1.290;2023-03-21T09:28:49;99297.30;;;14.30;100.00
28027;BME280;15344;52.342;-1.290;2023-03-21T09:31:15;99301.53;;;14.17;100.00
28027;BME280;15344;52.342;-1.290;2023-03-21T09:33:39;99293.07;;;13.22;100.00
28027;BME280;15344;52.342;-1.290;2023-03-21T09:36:06;99294.23;;;12.74;100.00
28027;BME280;15344;52.342;-1.290;2023-03-21T09:38:30;99289.79;;;12.93;100.00
28027;BME280;15344;52.342;-1.290;2023-03-21T09:41:04;99294.48;;;12.42;100.00
28027;BME280;15344;52.342;-1.290;2023-03-21T09:43:30;99297.21;;;12.97;100.00
28027;BME280;15344;52.342;-1.290;2023-03-21T09:45:51;99295.42;;;12.27;100.00
28027;BME280;15344;52.342;-1.290;2023-03-21T09:48:18;99291.97;;;12.41;100.00
28027;BME280;15344;52.342;-1.290;2023-03-21T09:50:37;99290.34;;;11.48;100.00
28027;BME280;15344;52.342;-1.290;2023-03-21T09:53:04;99290.82;;;12.05;100.00
28027;BME280;15344;52.342;-1.290;2023-03-21T09:55:29;99280.43;;;12.44;100.00
28027;BME280;15344;52.342;-1.290;2023-03-21T09:58:00;99270.29;;;12.78;100.00
28027;BME280;15344;52.342;-1.290;2023-03-21T10:00:23;99269.62;;;13.22;100.00
28027;BME280;15344;52.342;-1.290;2023-03-21T10:02:44;99270.39;;;13.27;100.00
28027;BME280;15344;52.342;-1.290;2023-03-21T10:05:16;99270.22;;;13.86;100.00
28027;BME280;15344;52.342;-1.290;2023-03-21T10:07:38;99262.51;;;13.47;100.00
28027;BME280;15344;52.342;-1.290;2023-03-21T10:10:01;99267.58;;;12.58;100.00
28027;BME280;15344;52.342;-1.290;2023-03-21T10:12:24;99269.44;;;12.50;100.00
28027;BME280;15344;52.342;-1.290;2023-03-21T10:14:51;99268.45;;;12.53;100.00
28027;BME280;15344;52.342;-1.290;2023-03-21T10:17:21;99266.71;;;12.96;100.00
28027;BME280;15344;52.342;-1.290;2023-03-21T10:19:40;99255.31;;;13.94;100.00
28027;BME280;15344;52.342;-1.290;2023-03-21T10:22:08;99251.04;;;14.87;100.00
28027;BME280;15344;52.342;-1.290;2023-03-21T10:24:32;99256.21;;;14.40;100.00
28027;BME280;15344;52.342;-1.290;2023-03-21T10:26:56;99254.58;;;14.49;100.00
28027;BME280;15344;52.342;-1.290;2023-03-21T10:29:25;99259.59;;;13.89;100.00
28027;BME280;15344;52.342;-1.290;2023-03-21T10:31:49;99256.09;;;13.32;100.00
28027;BME280;15344;52.342;-1.290;2023-03-21T10:34:16;99254.19;;;13.74;100.00
28027;BME280;15344;52.342;-1.290;2023-03-21T10:36:38;99260.96;;;13.99;100.00
28027;BME280;15344;52.342;-1.290;2023-03-21T10:39:05;99256.58;;;14.02;100.00
28027;BME280;15344;52.342;-1.290;2023-03-21T10:41:28;99256.41;;;13.86;100.00
28027;BME280;15344;52.342;-1.290;2023-03-21T10:46:20;99235.01;;;14.95;100.00
28027;BME280;15344;52.342;-1.290;2023-03-21T10:48:44;99234.98;;;15.25;100.00
28027;BME280;15344;52.342;-1.290;2023-03-21T10:51:13;99235.60;;;15.31;100.00
28027;BME280;15344;52.342;-1.290;2023-03-21T10:53:37;99247.77;;;15.33;100.00
28027;BME280;15344;52.342;-1.290;2023-03-21T10:56:00;99248.22;;;15.19;100.00
28027;BME280;15344;52.342;-1.290;2023-03-21T10:58:26;99251.83;;;15.80;100.00
28027;BME280;15344;52.342;-1.290;2023-03-21T11:00:54;99253.55;;;15.85;100.00
28027;BME280;15344;52.342;-1.290;2023-03-21T11:03:21;99250.85;;;15.23;100.00
28027;BME280;15344;52.342;-1.290;2023-03-21T11:05:41;99248.87;;;15.36;100.00
28027;BME280;15344;52.342;-1.290;2023-03-21T11:08:10;99247.77;;;15.15;100.00
28027;BME280;15344;52.342;-1.290;2023-03-21T11:10:33;99241.11;;;15.04;100.00
28027;BME280;15344;52.342;-1.290;2023-03-21T11:12:58;99240.47;;;14.91;100.00
28027;BME280;15344;52.342;-1.290;2023-03-21T11:15:28;99240.09;;;14.87;100.00
28027;BME280;15344;52.342;-1.290;2023-03-21T11:17:47;99238.84;;;15.60;100.00
28027;BME280;15344;52.342;-1.290;2023-03-21T11:20:17;99246.44;;;15.37;98.00
28027;BME280;15344;52.342;-1.290;2023-03-21T11:22:39;99247.27;;;14.98;99.57
28027;BME280;15344;52.342;-1.290;2023-03-21T11:25:09;99253.40;;;14.35;100.00
28027;BME280;15344;52.342;-1.290;2023-03-21T11:27:29;99254.64;;;14.68;100.00
28027;BME280;15344;52.342;-1.290;2023-03-21T11:29:53;99255.44;;;14.72;100.00
28027;BME280;15344;52.342;-1.290;2023-03-21T11:32:22;99265.26;;;14.57;100.00
28027;BME280;15344;52.342;-1.290;2023-03-21T11:34:46;99271.07;;;14.63;100.00
28027;BME280;15344;52.342;-1.290;2023-03-21T11:37:17;99268.87;;;14.98;100.00
28027;BME280;15344;52.342;-1.290;2023-03-21T11:39:35;99265.92;;;14.75;100.00
28027;BME280;15344;52.342;-1.290;2023-03-21T11:41:59;99267.76;;;14.69;100.00
28027;BME280;15344;52.342;-1.290;2023-03-21T11:44:27;99268.44;;;14.57;100.00
28027;BME280;15344;52.342;-1.290;2023-03-21T11:46:49;99271.45;;;14.76;100.00
28027;BME280;15344;52.342;-1.290;2023-03-21T11:49:15;99274.47;;;14.84;100.00
28027;BME280;15344;52.342;-1.290;2023-03-21T11:51:45;99273.56;;;14.52;100.00
28027;BME280;15344;52.342;-1.290;2023-03-21T11:54:11;99274.17;;;14.29;100.00
28027;BME280;15344;52.342;-1.290;2023-03-21T11:56:33;99265.14;;;13.95;99.84
28027;BME280;15344;52.342;-1.290;2023-03-21T11:59:12;99263.56;;;14.61;100.00
28027;BME280;15344;52.342;-1.290;2023-03-21T12:01:26;99260.88;;;14.42;100.00
28027;BME280;15344;52.342;-1.290;2023-03-21T12:03:54;99258.89;;;14.62;100.00
28027;BME280;15344;52.342;-1.290;2023-03-21T12:06:18;99258.49;;;14.62;100.00
28027;BME280;15344;52.342;-1.290;2023-03-21T12:08:43;99253.34;;;14.53;100.00
28027;BME280;15344;52.342;-1.290;2023-03-21T12:11:10;99249.84;;;13.98;100.00
28027;BME280;15344;52.342;-1.290;2023-03-21T12:13:35;99246.13;;;14.21;100.00
28027;BME280;15344;52.342;-1.290;2023-03-21T12:15:58;99242.78;;;14.82;98.87
28027;BME280;15344;52.342;-1.290;2023-03-21T12:18:31;99239.33;;;14.78;96.91
28027;BME280;15344;52.342;-1.290;2023-03-21T12:20:46;99240.83;;;14.33;97.94
28027;BME280;15344;52.342;-1.290;2023-03-21T12:23:20;99239.53;;;14.79;95.35
28027;BME280;15344;52.342;-1.290;2023-03-21T12:25:38;99241.95;;;15.46;93.94
28027;BME280;15344;52.342;-1.290;2023-03-21T12:28:07;99243.13;;;14.99;93.67
28027;BME280;15344;52.342;-1.290;2023-03-21T12:30:31;99235.60;;;14.74;93.98
28027;BME280;15344;52.342;-1.290;2023-03-21T12:32:57;99230.61;;;14.26;95.82
28027;BME280;15344;52.342;-1.290;2023-03-21T12:37:47;99229.58;;;13.36;100.00
28027;BME280;15344;52.342;-1.290;2023-03-21T12:40:11;99230.90;;;14.11;99.17